SHMÚ vydal meteorologické výstrahy na Prízemný mráz Zobraziť výstrahy

TAF

Letisková predpoveď TAF

Informácie o správe TAF

26.09.2016 - 08:00 UTC

TAF LZSL 260800Z 2609/2618 VRB02KT 9999 FEW040
    TEMPO 2611/2617 21006KT SCT050=
TAF LZPP 260800Z 2609/2618 15006KT 9999 FEW040
    BECMG 2616/2618 VRB02KT CAVOK=
TAF LZZI 260800Z 2609/2618 VRB02KT 9999 BKN035
    TEMPO 2610/2617 23005KT SCT040
    BECMG 2616/2618 FEW040=

26.09.2016 - 08:00 UTC

TAF LZSL 260800Z 2609/2618 VRB02KT 9999 FEW040
    TEMPO 2611/2617 21006KT SCT050=
TAF LZPP 260800Z 2609/2618 15006KT 9999 FEW040
    BECMG 2616/2618 VRB02KT CAVOK=
TAF LZZI 260800Z 2609/2618 VRB02KT 9999 BKN035
    TEMPO 2610/2617 23005KT SCT040
    BECMG 2616/2618 FEW040=

26.09.2016 - 05:00 UTC

TAF AMD LZTT 260553Z 2606/2706 VRB02KT 9999 FEW055
    BECMG 2607/2609 10006KT
    BECMG 2622/2624 26004KT 4000 BR FEW004
    TEMPO 2701/2706 0600 FG BKN002
    PROB30 TEMPO 2702/2706 0100 FG OVC001=

26.09.2016 - 05:00 UTC

TAF LZSL 260500Z 2606/2615 VRB02KT 5000 BR FEW002
    TEMPO 2606/2607 1200 BR BKN002
    BECMG 2607/2609 9999 NSW FEW050=
TAF LZPP 260500Z 2606/2615 01004KT CAVOK
    BECMG 2607/2609 15005KT=
TAF LZZI 260500Z 2606/2615 VRB02KT 9999 FEW050
    BECMG 2609/2611 23004KT=

26.09.2016 - 05:00 UTC

TAF LZSL 260500Z 2606/2615 VRB02KT 5000 BR FEW002
    TEMPO 2606/2607 1200 BR BKN002
    BECMG 2607/2609 9999 NSW FEW050=
TAF LZPP 260500Z 2606/2615 01004KT CAVOK
    BECMG 2607/2609 15005KT=
TAF LZZI 260500Z 2606/2615 VRB02KT 9999 FEW050
    BECMG 2609/2611 23004KT=

26.09.2016 - 05:00 UTC

TAF LZIB 260500Z 2606/2706 06004KT CAVOK
    TEMPO 2610/2618 13004KT
    TEMPO 2702/2706 VRB02KT 2000 BCFG BKN002=
TAF LZKZ 260500Z 2606/2706 02005KT CAVOK
    PROB40 TEMPO 2702/2706 VRB02KT 4000 BCFG SCT002=
TAF LZTT 260500Z 2606/2706 VRB02KT 2500 BCFG BKN001
    TEMPO 2606/2608 0100 FG OVC001
    TEMPO 2607/2609 14005KT 9999 FEW055
    BECMG 2622/2624 26004KT 4000 BCFG FEW004
    TEMPO 2701/2706 0600 FG BKN002
    PROB30 TEMPO 2702/2706 0100 FG OVC001=

26.09.2016 - 02:00 UTC

TAF AMD LZSL 260340Z 2603/2612 VRB02KT 5000 BR FEW002
    TEMPO 2603/2606 1200 BR BKN002
    BECMG 2607/2609 9999 NSW FEW050=
TAF AMD LZZI 260340Z 2603/2612 VRB02KT 9999 SCT050
    PROB30 TEMPO 2603/2606 3000 BR SCT002=

26.09.2016 - 02:00 UTC

TAF LZSL 260200Z 2603/2612 VRB02KT 3000 BR FEW002
    BECMG 2603/2604 0800 FG BKN001
    TEMPO 2603/2606 0300 FG OVC001
    BECMG 2607/2609 9999 NSW FEW050=
TAF LZZI 260200Z 2603/2612 VRB02KT CAVOK
    BECMG 2603/2604 3000 BR NSC
    PROB30 TEMPO 2603/2606 1200 BR BKN002
    BECMG 2607/2609 9999 NSW FEW045=

26.09.2016 - 02:00 UTC

TAF LZSL 260200Z 2603/2612 VRB02KT 3000 BR FEW002
    BECMG 2603/2604 0800 FG BKN001
    TEMPO 2603/2606 0300 FG OVC001
    BECMG 2607/2609 9999 NSW FEW050=
TAF LZZI 260200Z 2603/2612 VRB02KT CAVOK
    BECMG 2603/2604 3000 BR NSC
    PROB30 TEMPO 2603/2606 1200 BR BKN002
    BECMG 2607/2609 9999 NSW FEW045=

skok na menu ↑


skok na začiatok stránky ↑